sensor_id;sensor_type;location;lat;lon;timestamp;temperature;humidity
71837;DHT22;59686;51.716;7.016;2023-11-21T00:01:06;11.80;96.90
71837;DHT22;59686;51.716;7.016;2023-11-21T00:03:34;11.80;96.90
71837;DHT22;59686;51.716;7.016;2023-11-21T00:06:00;11.70;96.90
71837;DHT22;59686;51.716;7.016;2023-11-21T00:08:26;11.80;96.90
71837;DHT22;59686;51.716;7.016;2023-11-21T00:10:52;11.80;96.90
71837;DHT22;59686;51.716;7.016;2023-11-21T00:13:18;11.80;96.90
71837;DHT22;59686;51.716;7.016;2023-11-21T00:15:44;11.70;96.90
71837;DHT22;59686;51.716;7.016;2023-11-21T00:18:09;11.80;97.00
71837;DHT22;59686;51.716;7.016;2023-11-21T00:20:35;11.70;97.00
71837;DHT22;59686;51.716;7.016;2023-11-21T00:23:01;11.70;97.00
71837;DHT22;59686;51.716;7.016;2023-11-21T00:25:27;11.70;97.00
71837;DHT22;59686;51.716;7.016;2023-11-21T00:27:53;11.70;97.00
71837;DHT22;59686;51.716;7.016;2023-11-21T00:30:19;11.70;97.00
71837;DHT22;59686;51.716;7.016;2023-11-21T00:32:46;11.90;97.00
71837;DHT22;59686;51.716;7.016;2023-11-21T00:35:12;11.70;97.00
71837;DHT22;59686;51.716;7.016;2023-11-21T00:37:37;11.70;97.00
71837;DHT22;59686;51.716;7.016;2023-11-21T00:40:05;11.60;97.00
71837;DHT22;59686;51.716;7.016;2023-11-21T00:42:31;11.70;97.00
71837;DHT22;59686;51.716;7.016;2023-11-21T00:45:00;11.70;97.00
71837;DHT22;59686;51.716;7.016;2023-11-21T00:47:27;11.70;97.40
71837;DHT22;59686;51.716;7.016;2023-11-21T00:49:53;11.70;97.10
71837;DHT22;59686;51.716;7.016;2023-11-21T00:52:18;11.70;97.10
71837;DHT22;59686;51.716;7.016;2023-11-21T00:54:44;11.70;97.10
71837;DHT22;59686;51.716;7.016;2023-11-21T00:57:10;11.70;97.00
71837;DHT22;59686;51.716;7.016;2023-11-21T00:59:37;11.70;97.10
71837;DHT22;59686;51.716;7.016;2023-11-21T01:02:03;11.60;97.00
71837;DHT22;59686;51.716;7.016;2023-11-21T01:04:30;11.70;97.00
71837;DHT22;59686;51.716;7.016;2023-11-21T01:06:57;11.70;97.30
71837;DHT22;59686;51.716;7.016;2023-11-21T01:09:22;11.70;97.00
71837;DHT22;59686;51.716;7.016;2023-11-21T01:11:49;11.70;97.00
71837;DHT22;59686;51.716;7.016;2023-11-21T01:14:15;11.60;97.30
71837;DHT22;59686;51.716;7.016;2023-11-21T01:16:40;11.70;97.00
71837;DHT22;59686;51.716;7.016;2023-11-21T01:19:06;11.70;97.00
71837;DHT22;59686;51.716;7.016;2023-11-21T01:21:32;11.60;97.00
71837;DHT22;59686;51.716;7.016;2023-11-21T01:23:57;11.60;97.00
71837;DHT22;59686;51.716;7.016;2023-11-21T01:26:23;11.70;97.00
71837;DHT22;59686;51.716;7.016;2023-11-21T01:28:49;11.60;97.00
71837;DHT22;59686;51.716;7.016;2023-11-21T01:31:15;11.60;97.00
71837;DHT22;59686;51.716;7.016;2023-11-21T01:33:41;11.60;97.00
71837;DHT22;59686;51.716;7.016;2023-11-21T01:36:07;11.60;96.90
71837;DHT22;59686;51.716;7.016;2023-11-21T01:38:38;11.60;97.00
71837;DHT22;59686;51.716;7.016;2023-11-21T01:41:04;11.60;96.90
71837;DHT22;59686;51.716;7.016;2023-11-21T01:43:31;11.60;96.90
71837;DHT22;59686;51.716;7.016;2023-11-21T01:45:58;11.60;96.90
71837;DHT22;59686;51.716;7.016;2023-11-21T01:48:24;11.60;96.90
71837;DHT22;59686;51.716;7.016;2023-11-21T01:50:50;11.60;96.90
71837;DHT22;59686;51.716;7.016;2023-11-21T01:53:16;11.60;96.90
71837;DHT22;59686;51.716;7.016;2023-11-21T01:55:42;11.60;96.90
71837;DHT22;59686;51.716;7.016;2023-11-21T01:58:11;11.60;96.90
71837;DHT22;59686;51.716;7.016;2023-11-21T02:00:38;11.60;96.90
71837;DHT22;59686;51.716;7.016;2023-11-21T02:03:04;11.50;96.80
71837;DHT22;59686;51.716;7.016;2023-11-21T02:05:29;11.70;96.90
71837;DHT22;59686;51.716;7.016;2023-11-21T02:08:11;11.60;96.80
71837;DHT22;59686;51.716;7.016;2023-11-21T02:10:37;11.60;96.80
71837;DHT22;59686;51.716;7.016;2023-11-21T02:13:03;11.60;96.80
71837;DHT22;59686;51.716;7.016;2023-11-21T02:15:29;11.50;96.80
71837;DHT22;59686;51.716;7.016;2023-11-21T02:17:55;11.60;96.80
71837;DHT22;59686;51.716;7.016;2023-11-21T02:20:21;11.50;96.80
71837;DHT22;59686;51.716;7.016;2023-11-21T02:22:51;11.60;96.80
71837;DHT22;59686;51.716;7.016;2023-11-21T02:25:24;11.60;96.80
71837;DHT22;59686;51.716;7.016;2023-11-21T02:27:49;11.60;96.80
71837;DHT22;59686;51.716;7.016;2023-11-21T02:30:15;11.60;96.80
71837;DHT22;59686;51.716;7.016;2023-11-21T02:32:41;11.50;96.70
71837;DHT22;59686;51.716;7.016;2023-11-21T02:35:08;11.50;96.80
71837;DHT22;59686;51.716;7.016;2023-11-21T02:37:34;11.50;96.70
71837;DHT22;59686;51.716;7.016;2023-11-21T02:40:01;11.50;96.70
71837;DHT22;59686;51.716;7.016;2023-11-21T02:42:29;11.50;97.10
71837;DHT22;59686;51.716;7.016;2023-11-21T02:44:56;11.50;96.70
71837;DHT22;59686;51.716;7.016;2023-11-21T02:47:22;11.40;96.70
71837;DHT22;59686;51.716;7.016;2023-11-21T02:49:49;11.50;96.70
71837;DHT22;59686;51.716;7.016;2023-11-21T02:52:14;11.50;96.70
71837;DHT22;59686;51.716;7.016;2023-11-21T02:54:40;11.50;96.70
71837;DHT22;59686;51.716;7.016;2023-11-21T02:57:06;11.50;96.70
71837;DHT22;59686;51.716;7.016;2023-11-21T02:59:33;11.50;96.70
71837;DHT22;59686;51.716;7.016;2023-11-21T03:02:00;11.50;96.70
71837;DHT22;59686;51.716;7.016;2023-11-21T03:04:26;11.50;96.70
71837;DHT22;59686;51.716;7.016;2023-11-21T03:06:52;11.50;96.70
71837;DHT22;59686;51.716;7.016;2023-11-21T03:09:17;11.50;96.70
71837;DHT22;59686;51.716;7.016;2023-11-21T03:11:43;11.50;97.00
71837;DHT22;59686;51.716;7.016;2023-11-21T03:14:11;11.50;96.70
71837;DHT22;59686;51.716;7.016;2023-11-21T03:16:36;11.50;96.70
71837;DHT22;59686;51.716;7.016;2023-11-21T03:19:04;11.50;96.70
71837;DHT22;59686;51.716;7.016;2023-11-21T03:21:30;11.60;96.70
71837;DHT22;59686;51.716;7.016;2023-11-21T03:23:56;11.40;97.00
71837;DHT22;59686;51.716;7.016;2023-11-21T03:26:21;11.40;96.70
71837;DHT22;59686;51.716;7.016;2023-11-21T03:28:47;11.50;96.70
71837;DHT22;59686;51.716;7.016;2023-11-21T03:31:14;11.40;97.00
71837;DHT22;59686;51.716;7.016;2023-11-21T03:33:42;11.40;96.70
71837;DHT22;59686;51.716;7.016;2023-11-21T03:36:08;11.50;96.70
71837;DHT22;59686;51.716;7.016;2023-11-21T03:38:35;11.40;96.60
71837;DHT22;59686;51.716;7.016;2023-11-21T03:41:01;11.40;96.70
71837;DHT22;59686;51.716;7.016;2023-11-21T03:43:27;11.50;96.70
71837;DHT22;59686;51.716;7.016;2023-11-21T03:45:53;11.40;96.70
71837;DHT22;59686;51.716;7.016;2023-11-21T03:48:18;11.40;96.70
71837;DHT22;59686;51.716;7.016;2023-11-21T03:50:46;11.40;96.70
71837;DHT22;59686;51.716;7.016;2023-11-21T03:53:12;11.50;96.70
71837;DHT22;59686;51.716;7.016;2023-11-21T03:55:38;11.40;96.70
71837;DHT22;59686;51.716;7.016;2023-11-21T03:58:04;11.30;96.70
71837;DHT22;59686;51.716;7.016;2023-11-21T04:00:29;11.40;96.70
71837;DHT22;59686;51.716;7.016;2023-11-21T04:02:55;11.40;96.70
71837;DHT22;59686;51.716;7.016;2023-11-21T04:05:21;11.40;96.70
71837;DHT22;59686;51.716;7.016;2023-11-21T04:07:50;11.40;96.70
71837;DHT22;59686;51.716;7.016;2023-11-21T04:10:19;11.40;96.70
71837;DHT22;59686;51.716;7.016;2023-11-21T04:12:45;11.40;96.70
71837;DHT22;59686;51.716;7.016;2023-11-21T04:15:12;11.40;96.70
71837;DHT22;59686;51.716;7.016;2023-11-21T04:17:41;11.40;96.70
71837;DHT22;59686;51.716;7.016;2023-11-21T04:20:08;11.50;96.70
71837;DHT22;59686;51.716;7.016;2023-11-21T04:22:43;11.40;96.70
71837;DHT22;59686;51.716;7.016;2023-11-21T04:25:13;11.40;96.70
71837;DHT22;59686;51.716;7.016;2023-11-21T04:27:40;11.40;96.70
71837;DHT22;59686;51.716;7.016;2023-11-21T04:30:06;11.40;96.70
71837;DHT22;59686;51.716;7.016;2023-11-21T04:32:32;11.40;96.70
71837;DHT22;59686;51.716;7.016;2023-11-21T04:34:58;11.40;96.70
71837;DHT22;59686;51.716;7.016;2023-11-21T04:37:23;11.40;96.70
71837;DHT22;59686;51.716;7.016;2023-11-21T04:39:49;11.40;96.70
71837;DHT22;59686;51.716;7.016;2023-11-21T04:42:15;11.40;96.70
71837;DHT22;59686;51.716;7.016;2023-11-21T04:44:41;11.40;96.70
71837;DHT22;59686;51.716;7.016;2023-11-21T04:47:07;11.40;96.70
71837;DHT22;59686;51.716;7.016;2023-11-21T04:49:33;11.30;96.60
71837;DHT22;59686;51.716;7.016;2023-11-21T04:51:59;11.20;96.60
71837;DHT22;59686;51.716;7.016;2023-11-21T04:54:25;11.30;96.60
71837;DHT22;59686;51.716;7.016;2023-11-21T04:56:50;11.30;96.60
71837;DHT22;59686;51.716;7.016;2023-11-21T04:59:16;11.30;96.60
71837;DHT22;59686;51.716;7.016;2023-11-21T05:01:42;11.30;96.60
71837;DHT22;59686;51.716;7.016;2023-11-21T05:04:07;11.30;96.60
71837;DHT22;59686;51.716;7.016;2023-11-21T05:06:34;11.30;96.60
71837;DHT22;59686;51.716;7.016;2023-11-21T05:09:00;11.40;96.60
71837;DHT22;59686;51.716;7.016;2023-11-21T05:11:26;11.30;96.60
71837;DHT22;59686;51.716;7.016;2023-11-21T05:13:53;11.30;96.60
71837;DHT22;59686;51.716;7.016;2023-11-21T05:16:21;11.30;96.60
71837;DHT22;59686;51.716;7.016;2023-11-21T05:18:47;11.20;96.50
71837;DHT22;59686;51.716;7.016;2023-11-21T05:21:13;11.20;96.50
71837;DHT22;59686;51.716;7.016;2023-11-21T05:23:40;11.20;96.50
71837;DHT22;59686;51.716;7.016;2023-11-21T05:26:11;11.30;96.50
71837;DHT22;59686;51.716;7.016;2023-11-21T05:28:36;11.20;96.50
71837;DHT22;59686;51.716;7.016;2023-11-21T05:31:02;11.40;96.60
71837;DHT22;59686;51.716;7.016;2023-11-21T05:33:28;11.20;96.50
71837;DHT22;59686;51.716;7.016;2023-11-21T05:35:53;11.20;96.50
71837;DHT22;59686;51.716;7.016;2023-11-21T05:38:19;11.20;96.50
71837;DHT22;59686;51.716;7.016;2023-11-21T05:40:47;11.20;96.50
71837;DHT22;59686;51.716;7.016;2023-11-21T05:43:13;11.20;96.50
71837;DHT22;59686;51.716;7.016;2023-11-21T05:45:38;11.20;96.50
71837;DHT22;59686;51.716;7.016;2023-11-21T05:48:04;11.20;96.50
71837;DHT22;59686;51.716;7.016;2023-11-21T05:50:31;11.20;96.50
71837;DHT22;59686;51.716;7.016;2023-11-21T05:52:58;11.20;96.40
71837;DHT22;59686;51.716;7.016;2023-11-21T05:55:26;11.20;96.50
71837;DHT22;59686;51.716;7.016;2023-11-21T05:57:52;11.20;96.50
71837;DHT22;59686;51.716;7.016;2023-11-21T06:00:17;11.20;96.50
71837;DHT22;59686;51.716;7.016;2023-11-21T06:02:51;11.20;96.50
71837;DHT22;59686;51.716;7.016;2023-11-21T06:05:19;11.20;96.50
71837;DHT22;59686;51.716;7.016;2023-11-21T06:07:44;11.20;96.50
71837;DHT22;59686;51.716;7.016;2023-11-21T06:10:11;11.20;96.50
71837;DHT22;59686;51.716;7.016;2023-11-21T06:12:40;11.20;96.50
71837;DHT22;59686;51.716;7.016;2023-11-21T06:15:08;11.20;96.50
71837;DHT22;59686;51.716;7.016;2023-11-21T06:17:38;11.20;96.50
71837;DHT22;59686;51.716;7.016;2023-11-21T06:20:06;11.20;96.50
71837;DHT22;59686;51.716;7.016;2023-11-21T06:22:40;11.20;96.50
71837;DHT22;59686;51.716;7.016;2023-11-21T06:25:07;11.20;96.50
71837;DHT22;59686;51.716;7.016;2023-11-21T06:27:34;11.20;96.50
71837;DHT22;59686;51.716;7.016;2023-11-21T06:30:01;11.20;96.60
71837;DHT22;59686;51.716;7.016;2023-11-21T06:32:27;11.20;96.60
71837;DHT22;59686;51.716;7.016;2023-11-21T06:34:55;11.20;96.60
71837;DHT22;59686;51.716;7.016;2023-11-21T06:37:21;11.10;96.60
71837;DHT22;59686;51.716;7.016;2023-11-21T06:39:51;11.20;96.60
71837;DHT22;59686;51.716;7.016;2023-11-21T06:42:18;11.20;96.60
71837;DHT22;59686;51.716;7.016;2023-11-21T06:44:45;11.20;96.60
71837;DHT22;59686;51.716;7.016;2023-11-21T06:47:11;11.20;96.60
71837;DHT22;59686;51.716;7.016;2023-11-21T06:49:36;11.20;96.60
71837;DHT22;59686;51.716;7.016;2023-11-21T06:52:04;11.20;96.60
71837;DHT22;59686;51.716;7.016;2023-11-21T06:54:31;11.20;96.60
71837;DHT22;59686;51.716;7.016;2023-11-21T06:56:57;11.30;96.60
71837;DHT22;59686;51.716;7.016;2023-11-21T06:59:23;11.10;96.60
71837;DHT22;59686;51.716;7.016;2023-11-21T07:01:49;11.20;96.60
71837;DHT22;59686;51.716;7.016;2023-11-21T07:04:15;11.20;96.60
71837;DHT22;59686;51.716;7.016;2023-11-21T07:06:48;11.10;96.60
71837;DHT22;59686;51.716;7.016;2023-11-21T07:09:13;11.20;96.60
71837;DHT22;59686;51.716;7.016;2023-11-21T07:11:41;11.20;96.60
71837;DHT22;59686;51.716;7.016;2023-11-21T07:14:07;11.10;96.70
71837;DHT22;59686;51.716;7.016;2023-11-21T07:16:36;11.20;96.70
71837;DHT22;59686;51.716;7.016;2023-11-21T07:19:07;11.10;96.70
71837;DHT22;59686;51.716;7.016;2023-11-21T07:21:34;11.10;96.70
71837;DHT22;59686;51.716;7.016;2023-11-21T07:24:03;11.10;96.70
71837;DHT22;59686;51.716;7.016;2023-11-21T07:26:30;11.20;96.70
71837;DHT22;59686;51.716;7.016;2023-11-21T07:28:56;11.10;96.70
71837;DHT22;59686;51.716;7.016;2023-11-21T07:31:25;11.10;96.70
71837;DHT22;59686;51.716;7.016;2023-11-21T07:33:51;11.10;96.70
71837;DHT22;59686;51.716;7.016;2023-11-21T07:36:17;11.10;96.70
71837;DHT22;59686;51.716;7.016;2023-11-21T07:38:49;11.10;96.70
71837;DHT22;59686;51.716;7.016;2023-11-21T07:41:15;11.20;96.70
71837;DHT22;59686;51.716;7.016;2023-11-21T07:43:41;11.10;96.70
71837;DHT22;59686;51.716;7.016;2023-11-21T07:46:12;11.10;96.70
71837;DHT22;59686;51.716;7.016;2023-11-21T07:48:38;11.10;96.70
71837;DHT22;59686;51.716;7.016;2023-11-21T07:51:04;11.10;96.80
71837;DHT22;59686;51.716;7.016;2023-11-21T07:53:30;11.10;96.70
71837;DHT22;59686;51.716;7.016;2023-11-21T07:55:57;11.20;96.80
71837;DHT22;59686;51.716;7.016;2023-11-21T07:58:22;11.10;96.70
71837;DHT22;59686;51.716;7.016;2023-11-21T08:00:49;11.10;96.70
71837;DHT22;59686;51.716;7.016;2023-11-21T08:03:16;11.20;96.80
71837;DHT22;59686;51.716;7.016;2023-11-21T08:05:42;11.20;96.70
71837;DHT22;59686;51.716;7.016;2023-11-21T08:08:08;11.10;96.70
71837;DHT22;59686;51.716;7.016;2023-11-21T08:10:34;11.10;96.70
71837;DHT22;59686;51.716;7.016;2023-11-21T08:13:02;11.10;96.70
71837;DHT22;59686;51.716;7.016;2023-11-21T08:15:28;11.10;96.70
71837;DHT22;59686;51.716;7.016;2023-11-21T08:17:53;11.20;96.80
71837;DHT22;59686;51.716;7.016;2023-11-21T08:20:19;11.10;96.80
71837;DHT22;59686;51.716;7.016;2023-11-21T08:23:00;11.10;96.80
71837;DHT22;59686;51.716;7.016;2023-11-21T08:25:28;11.10;96.70
71837;DHT22;59686;51.716;7.016;2023-11-21T08:27:55;11.10;96.80
71837;DHT22;59686;51.716;7.016;2023-11-21T08:30:21;11.10;96.80
71837;DHT22;59686;51.716;7.016;2023-11-21T08:32:49;11.10;96.80
71837;DHT22;59686;51.716;7.016;2023-11-21T08:35:16;11.10;96.70
71837;DHT22;59686;51.716;7.016;2023-11-21T08:37:41;11.10;96.70
71837;DHT22;59686;51.716;7.016;2023-11-21T08:40:07;11.10;96.80
71837;DHT22;59686;51.716;7.016;2023-11-21T08:42:35;11.10;96.80
71837;DHT22;59686;51.716;7.016;2023-11-21T08:45:01;11.10;96.80
71837;DHT22;59686;51.716;7.016;2023-11-21T08:47:27;11.10;96.80
71837;DHT22;59686;51.716;7.016;2023-11-21T08:49:53;11.10;96.80
71837;DHT22;59686;51.716;7.016;2023-11-21T08:52:21;11.10;96.80
71837;DHT22;59686;51.716;7.016;2023-11-21T08:54:51;11.20;96.80
71837;DHT22;59686;51.716;7.016;2023-11-21T08:57:25;11.10;96.80
71837;DHT22;59686;51.716;7.016;2023-11-21T08:59:50;11.10;96.80
71837;DHT22;59686;51.716;7.016;2023-11-21T09:02:23;11.10;96.80
71837;DHT22;59686;51.716;7.016;2023-11-21T09:04:49;11.10;96.80
71837;DHT22;59686;51.716;7.016;2023-11-21T09:07:16;11.00;96.80
71837;DHT22;59686;51.716;7.016;2023-11-21T09:09:41;11.10;96.80
71837;DHT22;59686;51.716;7.016;2023-11-21T09:12:07;11.20;96.90
71837;DHT22;59686;51.716;7.016;2023-11-21T09:14:37;11.10;96.90
71837;DHT22;59686;51.716;7.016;2023-11-21T09:17:03;11.10;96.80
71837;DHT22;59686;51.716;7.016;2023-11-21T09:19:28;11.20;96.80
71837;DHT22;59686;51.716;7.016;2023-11-21T09:21:56;11.10;96.80
71837;DHT22;59686;51.716;7.016;2023-11-21T09:24:22;11.10;96.80
71837;DHT22;59686;51.716;7.016;2023-11-21T09:26:48;11.10;96.80
71837;DHT22;59686;51.716;7.016;2023-11-21T09:29:13;11.10;96.80
71837;DHT22;59686;51.716;7.016;2023-11-21T09:31:39;11.10;96.80
71837;DHT22;59686;51.716;7.016;2023-11-21T09:34:05;11.10;96.80
71837;DHT22;59686;51.716;7.016;2023-11-21T09:36:31;11.20;96.90
71837;DHT22;59686;51.716;7.016;2023-11-21T09:38:58;11.10;96.90
71837;DHT22;59686;51.716;7.016;2023-11-21T09:41:46;11.10;96.90
71837;DHT22;59686;51.716;7.016;2023-11-21T09:44:17;11.10;96.90
71837;DHT22;59686;51.716;7.016;2023-11-21T09:46:43;11.10;96.90
71837;DHT22;59686;51.716;7.016;2023-11-21T09:49:13;11.10;96.90
71837;DHT22;59686;51.716;7.016;2023-11-21T09:51:42;11.10;96.90
71837;DHT22;59686;51.716;7.016;2023-11-21T09:54:10;11.10;97.20
71837;DHT22;59686;51.716;7.016;2023-11-21T09:56:39;11.10;96.90
71837;DHT22;59686;51.716;7.016;2023-11-21T09:59:06;11.20;97.00
71837;DHT22;59686;51.716;7.016;2023-11-21T10:01:36;11.10;96.90
71837;DHT22;59686;51.716;7.016;2023-11-21T10:04:03;11.10;97.00
71837;DHT22;59686;51.716;7.016;2023-11-21T10:06:30;11.10;96.90
71837;DHT22;59686;51.716;7.016;2023-11-21T10:08:56;11.10;97.00
71837;DHT22;59686;51.716;7.016;2023-11-21T10:11:25;11.20;97.00
71837;DHT22;59686;51.716;7.016;2023-11-21T10:13:54;11.10;96.90
71837;DHT22;59686;51.716;7.016;2023-11-21T10:16:25;11.10;96.90
71837;DHT22;59686;51.716;7.016;2023-11-21T10:18:52;11.20;97.00
71837;DHT22;59686;51.716;7.016;2023-11-21T10:21:21;11.20;97.40
71837;DHT22;59686;51.716;7.016;2023-11-21T10:23:53;11.10;97.00
71837;DHT22;59686;51.716;7.016;2023-11-21T10:26:20;11.20;97.10
71837;DHT22;59686;51.716;7.016;2023-11-21T10:28:58;11.20;97.10
71837;DHT22;59686;51.716;7.016;2023-11-21T10:31:29;11.20;97.00
71837;DHT22;59686;51.716;7.016;2023-11-21T10:34:13;11.00;97.00
71837;DHT22;59686;51.716;7.016;2023-11-21T10:36:39;11.10;97.00
71837;DHT22;59686;51.716;7.016;2023-11-21T10:39:05;11.20;97.00
71837;DHT22;59686;51.716;7.016;2023-11-21T10:41:31;11.20;97.00
71837;DHT22;59686;51.716;7.016;2023-11-21T10:43:57;11.20;97.00
71837;DHT22;59686;51.716;7.016;2023-11-21T10:46:23;11.10;97.00
71837;DHT22;59686;51.716;7.016;2023-11-21T10:48:54;11.20;97.10
71837;DHT22;59686;51.716;7.016;2023-11-21T10:51:21;11.20;97.10
71837;DHT22;59686;51.716;7.016;2023-11-21T10:53:47;11.30;97.20
71837;DHT22;59686;51.716;7.016;2023-11-21T10:56:18;11.20;97.20
71837;DHT22;59686;51.716;7.016;2023-11-21T10:58:49;11.20;97.10
71837;DHT22;59686;51.716;7.016;2023-11-21T11:01:18;11.20;97.20
71837;DHT22;59686;51.716;7.016;2023-11-21T11:03:44;11.20;97.20
71837;DHT22;59686;51.716;7.016;2023-11-21T11:06:10;11.20;97.10
71837;DHT22;59686;51.716;7.016;2023-11-21T11:08:38;11.20;97.10
71837;DHT22;59686;51.716;7.016;2023-11-21T11:11:09;11.20;97.30
71837;DHT22;59686;51.716;7.016;2023-11-21T11:13:35;11.20;97.10
71837;DHT22;59686;51.716;7.016;2023-11-21T11:16:03;11.20;97.20
71837;DHT22;59686;51.716;7.016;2023-11-21T11:18:33;11.20;97.20
71837;DHT22;59686;51.716;7.016;2023-11-21T11:21:54;11.20;97.10
71837;DHT22;59686;51.716;7.016;2023-11-21T11:24:17;11.20;97.20
71837;DHT22;59686;51.716;7.016;2023-11-21T11:26:57;11.20;97.10
71837;DHT22;59686;51.716;7.016;2023-11-21T11:32:08;11.20;97.10
71837;DHT22;59686;51.716;7.016;2023-11-21T11:34:38;11.20;97.10
71837;DHT22;59686;51.716;7.016;2023-11-21T11:37:07;11.20;97.10
71837;DHT22;59686;51.716;7.016;2023-11-21T11:39:41;11.30;97.10
71837;DHT22;59686;51.716;7.016;2023-11-21T11:42:15;11.20;97.10
71837;DHT22;59686;51.716;7.016;2023-11-21T11:47:31;11.20;97.10
71837;DHT22;59686;51.716;7.016;2023-11-21T11:50:01;11.30;97.20
71837;DHT22;59686;51.716;7.016;2023-11-21T11:52:55;11.20;97.20
71837;DHT22;59686;51.716;7.016;2023-11-21T11:55:23;11.20;97.20
71837;DHT22;59686;51.716;7.016;2023-11-21T11:57:53;11.20;97.20
71837;DHT22;59686;51.716;7.016;2023-11-21T12:02:57;11.30;97.20
71837;DHT22;59686;51.716;7.016;2023-11-21T12:05:25;11.30;97.20
71837;DHT22;59686;51.716;7.016;2023-11-21T12:07:54;11.20;97.20
71837;DHT22;59686;51.716;7.016;2023-11-21T12:10:24;11.30;97.20
71837;DHT22;59686;51.716;7.016;2023-11-21T12:13:17;11.20;97.20
71837;DHT22;59686;51.716;7.016;2023-11-21T12:15:41;11.20;97.20
71837;DHT22;59686;51.716;7.016;2023-11-21T12:18:08;11.20;97.50
71837;DHT22;59686;51.716;7.016;2023-11-21T12:20:33;11.30;97.30
71837;DHT22;59686;51.716;7.016;2023-11-21T12:23:05;11.30;97.30
71837;DHT22;59686;51.716;7.016;2023-11-21T12:25:32;11.30;97.30
71837;DHT22;59686;51.716;7.016;2023-11-21T12:27:59;11.30;97.30
71837;DHT22;59686;51.716;7.016;2023-11-21T12:30:34;11.40;97.40
71837;DHT22;59686;51.716;7.016;2023-11-21T12:33:04;11.30;97.30
71837;DHT22;59686;51.716;7.016;2023-11-21T12:35:39;11.30;97.50
71837;DHT22;59686;51.716;7.016;2023-11-21T12:38:05;11.30;97.40
71837;DHT22;59686;51.716;7.016;2023-11-21T12:40:31;11.30;97.40
71837;DHT22;59686;51.716;7.016;2023-11-21T12:42:58;11.30;97.30
71837;DHT22;59686;51.716;7.016;2023-11-21T12:45:28;11.30;97.30
71837;DHT22;59686;51.716;7.016;2023-11-21T12:48:01;11.30;97.30
71837;DHT22;59686;51.716;7.016;2023-11-21T12:50:32;11.30;97.30
71837;DHT22;59686;51.716;7.016;2023-11-21T12:53:04;11.30;97.30
71837;DHT22;59686;51.716;7.016;2023-11-21T12:55:31;11.30;97.30
71837;DHT22;59686;51.716;7.016;2023-11-21T12:57:58;11.30;97.30
71837;DHT22;59686;51.716;7.016;2023-11-21T13:00:33;11.30;97.30
71837;DHT22;59686;51.716;7.016;2023-11-21T13:03:03;11.30;97.30
71837;DHT22;59686;51.716;7.016;2023-11-21T13:05:31;11.40;97.30
71837;DHT22;59686;51.716;7.016;2023-11-21T13:07:58;11.30;97.30
71837;DHT22;59686;51.716;7.016;2023-11-21T13:10:26;11.30;97.30
71837;DHT22;59686;51.716;7.016;2023-11-21T13:12:55;11.30;97.30
71837;DHT22;59686;51.716;7.016;2023-11-21T13:15:32;11.30;97.40
71837;DHT22;59686;51.716;7.016;2023-11-21T13:17:58;11.30;97.30
71837;DHT22;59686;51.716;7.016;2023-11-21T13:20:25;11.30;97.40
71837;DHT22;59686;51.716;7.016;2023-11-21T13:22:53;11.30;97.40
71837;DHT22;59686;51.716;7.016;2023-11-21T13:25:23;11.30;97.30
71837;DHT22;59686;51.716;7.016;2023-11-21T13:27:49;11.30;97.30
71837;DHT22;59686;51.716;7.016;2023-11-21T13:30:16;11.40;97.30
71837;DHT22;59686;51.716;7.016;2023-11-21T13:32:44;11.30;97.30
71837;DHT22;59686;51.716;7.016;2023-11-21T13:35:13;11.30;97.30
71837;DHT22;59686;51.716;7.016;2023-11-21T13:37:57;11.30;97.30
71837;DHT22;59686;51.716;7.016;2023-11-21T13:40:26;11.40;97.30
71837;DHT22;59686;51.716;7.016;2023-11-21T13:42:55;11.30;97.30
71837;DHT22;59686;51.716;7.016;2023-11-21T13:45:25;11.40;97.30
71837;DHT22;59686;51.716;7.016;2023-11-21T13:47:53;11.40;97.30
71837;DHT22;59686;51.716;7.016;2023-11-21T13:50:27;11.40;97.30
71837;DHT22;59686;51.716;7.016;2023-11-21T13:53:03;11.30;97.30
71837;DHT22;59686;51.716;7.016;2023-11-21T13:55:53;11.30;97.30
71837;DHT22;59686;51.716;7.016;2023-11-21T13:58:20;11.30;97.30
71837;DHT22;59686;51.716;7.016;2023-11-21T14:01:05;11.40;97.30
71837;DHT22;59686;51.716;7.016;2023-11-21T14:03:32;11.40;97.30
71837;DHT22;59686;51.716;7.016;2023-11-21T14:06:19;11.30;97.30
71837;DHT22;59686;51.716;7.016;2023-11-21T14:08:50;11.40;97.30
71837;DHT22;59686;51.716;7.016;2023-11-21T14:11:16;11.30;97.30
71837;DHT22;59686;51.716;7.016;2023-11-21T14:13:44;11.30;97.30
71837;DHT22;59686;51.716;7.016;2023-11-21T14:16:14;11.30;97.30
71837;DHT22;59686;51.716;7.016;2023-11-21T14:18:40;11.40;97.40
71837;DHT22;59686;51.716;7.016;2023-11-21T14:21:21;11.30;97.30
71837;DHT22;59686;51.716;7.016;2023-11-21T14:23:47;11.30;97.20
71837;DHT22;59686;51.716;7.016;2023-11-21T14:26:14;11.30;97.30
71837;DHT22;59686;51.716;7.016;2023-11-21T14:28:41;11.30;97.20
71837;DHT22;59686;51.716;7.016;2023-11-21T14:31:08;11.30;97.20
71837;DHT22;59686;51.716;7.016;2023-11-21T14:33:39;11.40;97.30
71837;DHT22;59686;51.716;7.016;2023-11-21T14:36:05;11.30;97.20
71837;DHT22;59686;51.716;7.016;2023-11-21T14:38:33;11.40;97.20
71837;DHT22;59686;51.716;7.016;2023-11-21T14:40:59;11.40;97.20
71837;DHT22;59686;51.716;7.016;2023-11-21T14:43:25;11.40;97.20
71837;DHT22;59686;51.716;7.016;2023-11-21T14:45:53;11.30;97.20
71837;DHT22;59686;51.716;7.016;2023-11-21T14:48:21;11.40;97.20
71837;DHT22;59686;51.716;7.016;2023-11-21T14:51:05;11.30;97.20
71837;DHT22;59686;51.716;7.016;2023-11-21T14:53:31;11.40;97.20
71837;DHT22;59686;51.716;7.016;2023-11-21T14:56:10;11.40;97.20
71837;DHT22;59686;51.716;7.016;2023-11-21T14:58:35;11.30;97.10
71837;DHT22;59686;51.716;7.016;2023-11-21T15:01:03;11.30;97.10
71837;DHT22;59686;51.716;7.016;2023-11-21T15:03:29;11.30;97.10
71837;DHT22;59686;51.716;7.016;2023-11-21T15:05:58;11.50;97.10
71837;DHT22;59686;51.716;7.016;2023-11-21T15:08:25;11.30;97.10
71837;DHT22;59686;51.716;7.016;2023-11-21T15:10:57;11.30;97.10
71837;DHT22;59686;51.716;7.016;2023-11-21T15:13:24;11.40;97.10
71837;DHT22;59686;51.716;7.016;2023-11-21T15:15:51;11.30;97.10
71837;DHT22;59686;51.716;7.016;2023-11-21T15:18:20;11.40;97.10
71837;DHT22;59686;51.716;7.016;2023-11-21T15:20:46;11.20;97.00
71837;DHT22;59686;51.716;7.016;2023-11-21T15:23:11;11.30;97.00
71837;DHT22;59686;51.716;7.016;2023-11-21T15:25:42;11.30;97.10
71837;DHT22;59686;51.716;7.016;2023-11-21T15:28:08;11.30;97.10
71837;DHT22;59686;51.716;7.016;2023-11-21T15:30:34;11.30;97.10
71837;DHT22;59686;51.716;7.016;2023-11-21T15:33:00;11.30;97.00
71837;DHT22;59686;51.716;7.016;2023-11-21T15:35:28;11.40;97.00
71837;DHT22;59686;51.716;7.016;2023-11-21T15:37:54;11.30;97.00
71837;DHT22;59686;51.716;7.016;2023-11-21T15:40:24;11.30;97.00
71837;DHT22;59686;51.716;7.016;2023-11-21T15:42:50;11.30;97.00